Time,TemperatureF,DewpointF,PressureIn,WindDirection,WindDirectionDegrees,WindSpeedMPH,WindSpeedGustMPH,Humidity,HourlyPrecipIn,Conditions,Clouds,dailyrainin,SoftwareType,DateUTC
2013-08-03 00:01:00,62.4,58.8,30.10,NNE,22,0.0,0.0,88,0.00,CLR,,0.00,WeatherDisplay:10.37,2013-08-03 04:01:00,
2013-08-03 00:02:00,62.4,58.8,30.10,NNE,22,0.0,0.0,88,0.00,CLR,,0.00,WeatherDisplay:10.37,2013-08-03 04:02:00,
2013-08-03 00:07:00,62.4,58.8,30.10,NNE,22,0.0,0.0,88,0.00,CLR,,0.00,WeatherDisplay:10.37,2013-08-03 04:07:00,
2013-08-03 00:12:00,62.2,58.6,30.10,NNE,22,0.0,0.0,88,0.00,CLR,,0.00,WeatherDisplay:10.37,2013-08-03 04:12:00,
2013-08-03 00:17:00,62.1,58.5,30.10,NNE,22,0.0,0.0,88,0.00,CLR,,0.00,WeatherDisplay:10.37,2013-08-03 04:17:00,
2013-08-03 00:22:00,61.9,58.3,30.09,NNE,22,0.0,0.0,88,0.00,CLR,,0.00,WeatherDisplay:10.37,2013-08-03 04:22:00,
2013-08-03 00:27:00,61.7,58.1,30.09,NNE,22,0.0,0.0,88,0.00,CLR,,0.00,WeatherDisplay:10.37,2013-08-03 04:27:00,
2013-08-03 00:32:00,61.7,58.1,30.10,NNE,22,0.0,0.0,88,0.00,CLR,,0.00,WeatherDisplay:10.37,2013-08-03 04:32:00,
2013-08-03 00:37:00,61.5,57.9,30.09,NNE,22,0.0,0.0,88,0.00,CLR,,0.00,WeatherDisplay:10.37,2013-08-03 04:37:00,
2013-08-03 00:42:00,61.5,58.2,30.09,NNE,22,0.0,0.0,89,0.00,CLR,,0.00,WeatherDisplay:10.37,2013-08-03 04:42:00,
2013-08-03 00:47:00,61.3,58.1,30.08,NNE,22,0.0,0.0,89,0.00,CLR,,0.00,WeatherDisplay:10.37,2013-08-03 04:47:00,
2013-08-03 00:52:00,61.3,58.1,30.08,NNE,22,0.0,0.0,89,0.00,CLR,,0.00,WeatherDisplay:10.37,2013-08-03 04:52:00,
2013-08-03 00:57:00,61.3,58.1,30.08,NNE,22,0.0,0.0,89,0.00,CLR,,0.00,WeatherDisplay:10.37,2013-08-03 04:57:00,
2013-08-03 01:02:00,61.2,57.9,30.08,NNE,22,0.0,0.0,89,0.00,CLR,,0.00,WeatherDisplay:10.37,2013-08-03 05:02:00,
2013-08-03 01:07:00,61.2,57.9,30.08,NNE,22,0.0,0.0,89,0.00,CLR,,0.00,WeatherDisplay:10.37,2013-08-03 05:07:00,
2013-08-03 01:12:00,61.0,57.7,30.09,NNE,22,0.0,0.0,89,0.00,CLR,,0.00,WeatherDisplay:10.37,2013-08-03 05:12:00,
2013-08-03 01:17:00,61.0,58.0,30.08,NNE,22,0.0,0.0,90,0.00,CLR,,0.00,WeatherDisplay:10.37,2013-08-03 05:17:00,
2013-08-03 01:22:00,61.0,58.0,30.09,NNE,22,0.0,0.0,90,0.00,CLR,,0.00,WeatherDisplay:10.37,2013-08-03 05:22:00,
2013-08-03 01:27:00,60.6,57.7,30.09,NNE,22,0.0,0.0,90,0.00,CLR,,0.00,WeatherDisplay:10.37,2013-08-03 05:27:00,
2013-08-03 01:32:00,60.6,57.7,30.09,NNE,22,0.0,0.0,90,0.00,CLR,,0.00,WeatherDisplay:10.37,2013-08-03 05:32:00,
2013-08-03 01:37:00,60.6,57.7,30.08,NNE,22,0.0,0.0,90,0.00,CLR,,0.00,WeatherDisplay:10.37,2013-08-03 05:37:00,
2013-08-03 01:42:00,60.4,57.5,30.08,NNE,22,0.0,0.0,90,0.00,CLR,,0.00,WeatherDisplay:10.37,2013-08-03 05:42:00,
2013-08-03 01:47:00,60.4,57.5,30.09,NNE,22,0.0,0.0,90,0.00,CLR,,0.00,WeatherDisplay:10.37,2013-08-03 05:47:00,
2013-08-03 01:52:00,60.4,57.5,30.09,NNE,22,0.0,0.0,90,0.00,CLR,,0.00,WeatherDisplay:10.37,2013-08-03 05:52:00,
2013-08-03 01:57:00,60.4,57.5,30.09,NNE,22,0.0,0.0,90,0.00,CLR,,0.00,WeatherDisplay:10.37,2013-08-03 05:57:00,
2013-08-03 02:02:00,60.4,57.5,30.09,NNE,22,0.0,0.0,90,0.00,CLR,,0.00,WeatherDisplay:10.37,2013-08-03 06:02:00,
2013-08-03 02:07:00,60.3,57.3,30.08,NNE,22,0.0,0.0,90,0.00,CLR,,0.00,WeatherDisplay:10.37,2013-08-03 06:07:00,
2013-08-03 02:12:00,60.1,57.1,30.08,NNE,22,0.0,0.0,90,0.00,CLR,,0.00,WeatherDisplay:10.37,2013-08-03 06:12:00,
2013-08-03 02:17:00,60.1,57.1,30.08,NNE,22,0.0,0.0,90,0.00,CLR,,0.00,WeatherDisplay:10.37,2013-08-03 06:17:00,
2013-08-03 02:22:00,60.1,57.1,30.08,NNE,22,0.0,0.0,90,0.00,CLR,,0.00,WeatherDisplay:10.37,2013-08-03 06:22:00,
2013-08-03 02:27:00,59.9,57.0,30.08,NNE,22,0.0,0.0,90,0.00,CLR,,0.00,WeatherDisplay:10.37,2013-08-03 06:27:00,
2013-08-03 02:32:00,59.9,57.0,30.08,NNE,22,0.0,0.0,90,0.00,CLR,,0.00,WeatherDisplay:10.37,2013-08-03 06:32:00,
2013-08-03 02:37:00,59.7,56.8,30.08,NNE,22,0.0,0.0,90,0.00,CLR,,0.00,WeatherDisplay:10.37,2013-08-03 06:37:00,
2013-08-03 02:42:00,59.7,56.8,30.08,NNE,22,0.0,0.0,90,0.00,CLR,,0.00,WeatherDisplay:10.37,2013-08-03 06:42:00,
2013-08-03 02:47:00,59.5,56.6,30.08,NNE,22,0.0,0.0,90,0.00,CLR,,0.00,WeatherDisplay:10.37,2013-08-03 06:47:00,
2013-08-03 02:52:00,59.5,56.6,30.08,NNE,22,0.0,0.0,90,0.00,CLR,,0.00,WeatherDisplay:10.37,2013-08-03 06:52:00,
2013-08-03 02:57:00,59.5,56.6,30.08,NNE,22,0.0,0.0,90,0.00,CLR,,0.00,WeatherDisplay:10.37,2013-08-03 06:57:00,
2013-08-03 03:02:00,59.4,56.4,30.08,NNE,22,0.0,0.0,90,0.00,CLR,,0.00,WeatherDisplay:10.37,2013-08-03 07:02:00,
2013-08-03 03:08:00,59.4,56.4,30.08,NNE,22,0.0,0.0,90,0.00,CLR,,0.00,WeatherDisplay:10.37,2013-08-03 07:08:00,
2013-08-03 03:13:00,59.4,56.7,30.08,NNE,22,0.0,0.0,91,0.00,CLR,,0.00,WeatherDisplay:10.37,2013-08-03 07:13:00,
2013-08-03 03:18:00,59.4,56.7,30.08,NNE,22,0.0,0.0,91,0.00,CLR,,0.00,WeatherDisplay:10.37,2013-08-03 07:18:00,
2013-08-03 03:23:00,59.4,56.7,30.09,NNE,22,0.0,0.0,91,0.00,CLR,,0.00,WeatherDisplay:10.37,2013-08-03 07:23:00,
2013-08-03 03:27:00,59.4,56.7,30.09,NNE,22,0.0,0.0,91,0.00,CLR,,0.00,WeatherDisplay:10.37,2013-08-03 07:27:00,
2013-08-03 03:33:00,59.4,56.7,30.09,NNE,22,0.0,0.0,91,0.00,CLR,,0.00,WeatherDisplay:10.37,2013-08-03 07:33:00,
2013-08-03 03:37:00,59.5,56.9,30.09,NNE,22,0.0,0.0,91,0.00,CLR,,0.00,WeatherDisplay:10.37,2013-08-03 07:37:00,
2013-08-03 03:43:00,59.5,56.9,30.09,NNE,22,0.0,0.0,91,0.00,CLR,,0.00,WeatherDisplay:10.37,2013-08-03 07:43:00,
2013-08-03 03:47:00,59.5,56.9,30.09,NNE,22,0.0,0.0,91,0.00,CLR,,0.00,WeatherDisplay:10.37,2013-08-03 07:47:00,
2013-08-03 03:53:00,59.5,56.9,30.10,NNE,22,0.0,0.0,91,0.00,CLR,,0.00,WeatherDisplay:10.37,2013-08-03 07:53:00,
2013-08-03 03:58:00,59.4,56.7,30.09,NNE,22,0.0,0.0,91,0.00,CLR,,0.00,WeatherDisplay:10.37,2013-08-03 07:58:00,
2013-08-03 04:03:00,59.4,56.7,30.09,NNE,22,0.0,0.0,91,0.00,CLR,,0.00,WeatherDisplay:10.37,2013-08-03 08:03:00,
2013-08-03 04:08:00,59.4,56.7,30.09,NNE,22,0.0,0.0,91,0.00,CLR,,0.00,WeatherDisplay:10.37,2013-08-03 08:08:00,
2013-08-03 04:13:00,59.5,56.9,30.10,NNE,22,0.0,0.0,91,0.00,CLR,,0.00,WeatherDisplay:10.37,2013-08-03 08:13:00,
2013-08-03 04:18:00,59.5,56.9,30.09,NNE,22,0.0,0.0,91,0.00,CLR,,0.00,WeatherDisplay:10.37,2013-08-03 08:18:00,
2013-08-03 04:23:00,59.4,56.7,30.09,NNE,22,0.0,0.0,91,0.00,CLR,,0.00,WeatherDisplay:10.37,2013-08-03 08:23:00,
2013-08-03 04:28:00,59.5,56.9,30.09,NNE,22,0.0,0.0,91,0.00,CLR,,0.00,WeatherDisplay:10.37,2013-08-03 08:28:00,
2013-08-03 04:33:00,59.4,56.7,30.09,NNE,22,0.0,0.0,91,0.00,CLR,,0.00,WeatherDisplay:10.37,2013-08-03 08:33:00,
2013-08-03 04:38:00,59.5,56.9,30.09,NNE,22,0.0,0.0,91,0.00,CLR,,0.00,WeatherDisplay:10.37,2013-08-03 08:38:00,
2013-08-03 04:43:00,59.5,56.9,30.08,NNE,22,0.0,0.0,91,0.00,CLR,,0.00,WeatherDisplay:10.37,2013-08-03 08:43:00,
2013-08-03 04:47:00,59.5,56.9,30.08,NNE,22,0.0,0.0,91,0.00,CLR,,0.00,WeatherDisplay:10.37,2013-08-03 08:47:00,
2013-08-03 04:53:00,59.5,56.9,30.08,NNE,22,0.0,0.0,91,0.00,CLR,,0.00,WeatherDisplay:10.37,2013-08-03 08:53:00,
2013-08-03 04:58:00,59.5,56.9,30.08,NNE,22,0.0,0.0,91,0.00,CLR,,0.00,WeatherDisplay:10.37,2013-08-03 08:58:00,
2013-08-03 05:03:00,59.4,56.7,30.07,NNE,22,0.0,0.0,91,0.00,CLR,,0.00,WeatherDisplay:10.37,2013-08-03 09:03:00,
2013-08-03 05:08:00,59.5,56.9,30.08,NNE,22,0.0,0.0,91,0.00,CLR,,0.00,WeatherDisplay:10.37,2013-08-03 09:08:00,
2013-08-03 05:13:00,59.4,56.7,30.08,NNE,22,0.0,0.0,91,0.00,CLR,,0.00,WeatherDisplay:10.37,2013-08-03 09:13:00,
2013-08-03 05:18:00,59.4,56.7,30.07,NNE,22,0.0,0.0,91,0.00,CLR,,0.00,WeatherDisplay:10.37,2013-08-03 09:18:00,
2013-08-03 05:23:00,59.4,57.0,30.07,NNE,22,0.0,0.0,92,0.00,CLR,,0.00,WeatherDisplay:10.37,2013-08-03 09:23:00,
2013-08-03 05:28:00,59.4,57.0,30.07,NNE,22,0.0,0.0,92,0.00,CLR,,0.00,WeatherDisplay:10.37,2013-08-03 09:28:00,
2013-08-03 05:33:00,59.4,57.0,30.07,NNE,22,0.0,0.0,92,0.00,CLR,,0.00,WeatherDisplay:10.37,2013-08-03 09:33:00,
2013-08-03 05:38:00,59.4,57.0,30.07,NNE,22,0.0,0.0,92,0.00,CLR,,0.00,WeatherDisplay:10.37,2013-08-03 09:38:00,
2013-08-03 05:43:00,59.5,57.2,30.07,NNE,22,0.0,0.0,92,0.00,CLR,,0.00,WeatherDisplay:10.37,2013-08-03 09:43:00,
2013-08-03 05:48:00,59.5,57.2,30.07,NNE,22,0.0,0.0,92,0.00,CLR,,0.00,WeatherDisplay:10.37,2013-08-03 09:48:00,
2013-08-03 05:53:00,59.4,57.0,30.07,NNE,22,0.0,0.0,92,0.00,CLR,,0.00,WeatherDisplay:10.37,2013-08-03 09:53:00,
2013-08-03 05:58:00,59.4,57.0,30.08,NNE,22,0.0,0.0,92,0.00,CLR,,0.00,WeatherDisplay:10.37,2013-08-03 09:58:00,
2013-08-03 06:03:00,59.4,57.0,30.08,NNE,22,0.0,0.0,92,0.00,CLR,,0.00,WeatherDisplay:10.37,2013-08-03 10:03:00,
2013-08-03 06:08:00,59.5,57.2,30.08,NNE,22,0.0,0.0,92,0.00,CLR,,0.00,WeatherDisplay:10.37,2013-08-03 10:08:00,
2013-08-03 06:13:00,59.5,57.2,30.08,NNE,22,0.0,0.0,92,0.00,CLR,,0.00,WeatherDisplay:10.37,2013-08-03 10:13:00,
2013-08-03 06:18:00,59.5,57.2,30.08,NNE,22,0.0,0.0,92,0.00,CLR,,0.00,WeatherDisplay:10.37,2013-08-03 10:18:00,
2013-08-03 06:23:00,59.5,57.2,30.08,NNE,22,0.0,0.0,92,0.00,CLR,,0.00,WeatherDisplay:10.37,2013-08-03 10:23:00,
2013-08-03 06:28:00,59.5,57.2,30.08,NNE,22,0.0,0.0,92,0.00,CLR,,0.00,WeatherDisplay:10.37,2013-08-03 10:28:00,
2013-08-03 06:33:00,59.5,57.2,30.08,NNE,22,0.0,0.0,92,0.00,CLR,,0.00,WeatherDisplay:10.37,2013-08-03 10:33:00,
2013-08-03 06:38:00,59.5,57.2,30.08,NNE,22,0.0,0.0,92,0.00,CLR,,0.00,WeatherDisplay:10.37,2013-08-03 10:38:00,
2013-08-03 06:43:00,59.7,57.4,30.08,NNE,22,0.0,0.0,92,0.00,CLR,,0.00,WeatherDisplay:10.37,2013-08-03 10:43:00,
2013-08-03 06:48:00,59.7,57.4,30.08,NNE,22,0.0,0.0,92,0.00,CLR,,0.00,WeatherDisplay:10.37,2013-08-03 10:48:00,
2013-08-03 06:53:00,59.7,57.4,30.08,NNE,22,0.0,0.0,92,0.00,CLR,,0.00,WeatherDisplay:10.37,2013-08-03 10:53:00,
2013-08-03 06:58:00,59.7,57.4,30.08,NNE,22,0.0,0.0,92,0.00,CLR,,0.00,WeatherDisplay:10.37,2013-08-03 10:58:00,
2013-08-03 07:03:00,59.7,57.4,30.08,NNE,22,0.0,0.0,92,0.00,CLR,,0.00,WeatherDisplay:10.37,2013-08-03 11:03:00,
2013-08-03 07:08:00,59.7,57.4,30.08,NNE,22,0.0,0.0,92,0.00,CLR,,0.00,WeatherDisplay:10.37,2013-08-03 11:08:00,
2013-08-03 07:13:00,59.7,57.4,30.08,NNE,22,0.0,0.0,92,0.00,CLR,,0.00,WeatherDisplay:10.37,2013-08-03 11:13:00,
2013-08-03 07:18:00,59.9,57.6,30.08,NNE,22,0.0,0.0,92,0.00,CLR,,0.00,WeatherDisplay:10.37,2013-08-03 11:18:00,
2013-08-03 07:23:00,60.1,57.7,30.08,NNE,22,0.0,0.0,92,0.00,CLR,,0.00,WeatherDisplay:10.37,2013-08-03 11:23:00,
2013-08-03 07:28:00,60.1,57.7,30.08,NNE,22,0.0,0.0,92,0.00,CLR,,0.00,WeatherDisplay:10.37,2013-08-03 11:28:00,
2013-08-03 07:33:00,60.1,57.7,30.08,NNE,22,0.0,0.0,92,0.00,CLR,,0.00,WeatherDisplay:10.37,2013-08-03 11:33:00,
2013-08-03 07:38:00,60.1,57.7,30.08,NNE,22,0.0,0.0,92,0.00,CLR,,0.00,WeatherDisplay:10.37,2013-08-03 11:38:00,
2013-08-03 07:43:00,60.1,57.7,30.07,NNE,22,0.0,0.0,92,0.00,CLR,,0.00,WeatherDisplay:10.37,2013-08-03 11:43:00,
2013-08-03 07:48:00,60.3,57.9,30.08,NNE,22,0.0,0.0,92,0.00,CLR,,0.00,WeatherDisplay:10.37,2013-08-03 11:48:00,
2013-08-03 07:53:00,60.4,58.1,30.08,NNE,22,0.0,0.0,92,0.00,CLR,,0.00,WeatherDisplay:10.37,2013-08-03 11:53:00,
2013-08-03 07:58:00,60.4,58.1,30.08,NNE,22,0.0,0.0,92,0.00,CLR,,0.00,WeatherDisplay:10.37,2013-08-03 11:58:00,
2013-08-03 08:03:00,60.4,58.1,30.08,NNE,22,0.0,0.0,92,0.00,CLR,,0.00,WeatherDisplay:10.37,2013-08-03 12:03:00,
2013-08-03 08:08:00,60.4,58.1,30.08,NNE,22,0.0,0.0,92,0.00,CLR,,0.00,WeatherDisplay:10.37,2013-08-03 12:08:00,
2013-08-03 08:13:00,60.4,58.1,30.09,NNE,22,0.0,0.0,92,0.00,CLR,,0.00,WeatherDisplay:10.37,2013-08-03 12:13:00,
2013-08-03 08:18:00,60.6,58.3,30.08,NNE,22,0.0,0.0,92,0.00,CLR,,0.00,WeatherDisplay:10.37,2013-08-03 12:18:00,
2013-08-03 08:23:00,60.6,58.3,30.08,NNE,22,0.0,0.0,92,0.00,CLR,,0.00,WeatherDisplay:10.37,2013-08-03 12:23:00,
2013-08-03 08:28:00,61.0,58.6,30.08,NNE,22,0.0,0.0,92,0.00,CLR,,0.00,WeatherDisplay:10.37,2013-08-03 12:28:00,
2013-08-03 08:33:00,61.5,59.2,30.08,NNE,22,0.0,0.0,92,0.00,CLR,,0.00,WeatherDisplay:10.37,2013-08-03 12:33:00,
2013-08-03 08:38:00,62.1,59.7,30.07,NNE,22,0.0,0.0,92,0.00,CLR,,0.00,WeatherDisplay:10.37,2013-08-03 12:38:00,
2013-08-03 08:43:00,62.4,60.1,30.07,NNE,22,0.0,0.0,92,0.00,CLR,,0.00,WeatherDisplay:10.37,2013-08-03 12:43:00,
2013-08-03 08:48:00,63.0,60.6,30.07,NNE,22,0.0,0.0,92,0.00,CLR,,0.00,WeatherDisplay:10.37,2013-08-03 12:48:00,
2013-08-03 08:53:00,63.3,61.0,30.08,NNE,22,0.0,0.0,92,0.00,CLR,,0.00,WeatherDisplay:10.37,2013-08-03 12:53:00,
2013-08-03 08:58:00,63.7,61.3,30.08,NNE,22,0.0,0.0,92,0.00,CLR,,0.00,WeatherDisplay:10.37,2013-08-03 12:58:00,
2013-08-03 09:03:00,64.0,61.4,30.08,NNE,22,0.0,0.0,91,0.00,CLR,,0.00,WeatherDisplay:10.37,2013-08-03 13:03:00,
2013-08-03 09:08:00,64.2,61.5,30.08,NNE,22,0.0,0.0,91,0.00,CLR,,0.00,WeatherDisplay:10.37,2013-08-03 13:08:00,
2013-08-03 09:13:00,64.6,61.9,30.08,NNE,22,0.0,0.0,91,0.00,CLR,,0.00,WeatherDisplay:10.37,2013-08-03 13:13:00,
2013-08-03 09:18:00,64.9,62.2,30.08,NNE,22,0.0,0.0,91,0.00,CLR,,0.00,WeatherDisplay:10.37,2013-08-03 13:18:00,
2013-08-03 09:23:00,65.5,62.5,30.09,NNE,22,0.0,0.0,90,0.00,CLR,,0.00,WeatherDisplay:10.37,2013-08-03 13:23:00,
2013-08-03 09:28:00,66.4,63.4,30.09,NNE,22,0.0,0.0,90,0.00,CLR,,0.00,WeatherDisplay:10.37,2013-08-03 13:28:00,
2013-08-03 09:33:00,66.9,63.6,30.08,NNE,22,0.0,0.0,89,0.00,CLR,,0.00,WeatherDisplay:10.37,2013-08-03 13:33:00,
2013-08-03 09:38:00,67.1,63.4,30.08,NNE,22,0.0,0.0,88,0.00,CLR,,0.00,WeatherDisplay:10.37,2013-08-03 13:38:00,
2013-08-03 09:43:00,68.2,64.2,30.08,NNE,22,0.0,0.0,87,0.00,CLR,,0.00,WeatherDisplay:10.37,2013-08-03 13:43:00,
2013-08-03 09:48:00,68.7,64.4,30.08,NNE,22,0.0,0.0,86,0.00,CLR,,0.00,WeatherDisplay:10.37,2013-08-03 13:48:00,
2013-08-03 09:53:00,69.1,64.7,30.08,NNE,22,0.0,0.0,86,0.00,CLR,,0.00,WeatherDisplay:10.37,2013-08-03 13:53:00,
2013-08-03 09:58:00,69.4,64.7,30.08,NNE,22,0.0,0.0,85,0.00,CLR,,0.00,WeatherDisplay:10.37,2013-08-03 13:58:00,
2013-08-03 10:03:00,69.6,64.6,30.08,NNE,22,0.0,0.0,84,0.00,CLR,,0.00,WeatherDisplay:10.37,2013-08-03 14:03:00,
2013-08-03 10:08:00,69.6,63.9,30.08,NNE,22,0.0,0.0,82,0.00,CLR,,0.00,WeatherDisplay:10.37,2013-08-03 14:08:00,
2013-08-03 10:13:00,70.2,64.4,30.07,NNE,22,0.0,0.0,82,0.00,CLR,,0.00,WeatherDisplay:10.37,2013-08-03 14:13:00,
2013-08-03 10:18:00,70.5,64.4,30.07,NNE,22,0.0,0.0,81,0.00,CLR,,0.00,WeatherDisplay:10.37,2013-08-03 14:18:00,
2013-08-03 10:23:00,70.7,64.6,30.06,NNE,22,0.0,0.0,81,0.00,CLR,,0.00,WeatherDisplay:10.37,2013-08-03 14:23:00,
2013-08-03 10:28:00,71.4,64.6,30.07,NNE,22,0.0,0.0,79,0.00,CLR,,0.00,WeatherDisplay:10.37,2013-08-03 14:28:00,
2013-08-03 10:33:00,72.0,64.4,30.06,NNE,22,0.0,0.0,77,0.00,CLR,,0.00,WeatherDisplay:10.37,2013-08-03 14:33:00,
2013-08-03 10:38:00,72.3,64.3,30.06,NNE,22,0.0,0.0,76,0.00,CLR,,0.00,WeatherDisplay:10.37,2013-08-03 14:38:00,
2013-08-03 10:43:00,72.9,64.5,30.06,NNE,22,0.0,0.0,75,0.00,CLR,,0.00,WeatherDisplay:10.37,2013-08-03 14:43:00,
2013-08-03 10:48:00,73.2,64.8,30.06,NNE,22,0.0,0.0,75,0.00,CLR,,0.00,WeatherDisplay:10.37,2013-08-03 14:48:00,
2013-08-03 10:53:00,73.6,64.8,30.06,NNE,22,0.0,0.0,74,0.00,CLR,,0.00,WeatherDisplay:10.37,2013-08-03 14:53:00,
2013-08-03 10:58:00,74.1,64.1,30.06,NNE,22,0.0,0.0,71,0.00,CLR,,0.00,WeatherDisplay:10.37,2013-08-03 14:58:00,
2013-08-03 11:03:00,74.3,64.7,30.07,NNE,22,0.0,0.0,72,0.00,CLR,,0.00,WeatherDisplay:10.37,2013-08-03 15:03:00,
2013-08-03 11:08:00,74.8,65.2,30.06,NNE,22,0.0,0.0,72,0.00,CLR,,0.00,WeatherDisplay:10.37,2013-08-03 15:08:00,
2013-08-03 11:13:00,75.2,65.6,30.07,NNE,22,0.0,0.0,72,0.00,CLR,,0.00,WeatherDisplay:10.37,2013-08-03 15:13:00,
2013-08-03 11:18:00,75.2,65.1,30.07,NNE,22,0.0,0.0,71,0.00,CLR,,0.00,WeatherDisplay:10.37,2013-08-03 15:18:00,
2013-08-03 11:23:00,74.8,64.8,30.06,NNE,22,0.0,0.0,71,0.00,CLR,,0.00,WeatherDisplay:10.37,2013-08-03 15:23:00,
2013-08-03 11:28:00,74.5,64.9,30.07,NNE,22,0.0,0.0,72,0.00,CLR,,0.00,WeatherDisplay:10.37,2013-08-03 15:28:00,
2013-08-03 11:33:00,74.3,64.3,30.07,NNE,22,0.0,0.0,71,0.00,CLR,,0.00,WeatherDisplay:10.37,2013-08-03 15:33:00,
2013-08-03 11:38:00,73.9,64.3,30.07,NNE,22,0.0,0.0,72,0.00,CLR,,0.00,WeatherDisplay:10.37,2013-08-03 15:38:00,
2013-08-03 11:43:00,73.9,63.9,30.07,NNE,22,0.0,0.0,71,0.00,CLR,,0.00,WeatherDisplay:10.37,2013-08-03 15:43:00,
2013-08-03 11:48:00,73.8,64.6,30.06,NNE,22,0.0,0.0,73,0.00,CLR,,0.00,WeatherDisplay:10.37,2013-08-03 15:48:00,
2013-08-03 11:53:00,73.9,64.7,30.06,NNE,22,0.0,0.0,73,0.00,CLR,,0.00,WeatherDisplay:10.37,2013-08-03 15:53:00,
2013-08-03 11:58:00,74.1,64.9,30.07,NNE,22,0.0,0.0,73,0.00,CLR,,0.00,WeatherDisplay:10.37,2013-08-03 15:58:00,
2013-08-03 12:03:00,74.1,64.9,30.07,NNE,22,0.0,0.0,73,0.00,CLR,,0.00,WeatherDisplay:10.37,2013-08-03 16:03:00,
2013-08-03 12:08:00,74.5,65.3,30.07,NNE,22,0.0,0.0,73,0.00,CLR,,0.00,WeatherDisplay:10.37,2013-08-03 16:08:00,
2013-08-03 12:13:00,74.7,65.8,30.07,NNE,22,0.0,0.0,74,0.00,CLR,,0.00,WeatherDisplay:10.37,2013-08-03 16:13:00,
2013-08-03 12:18:00,74.8,65.2,30.07,NNE,22,0.0,0.0,72,0.00,CLR,,0.00,WeatherDisplay:10.37,2013-08-03 16:18:00,
2013-08-03 12:23:00,74.8,65.2,30.07,NNE,22,0.0,0.0,72,0.00,CLR,,0.00,WeatherDisplay:10.37,2013-08-03 16:23:00,
2013-08-03 12:28:00,74.8,65.2,30.07,NNE,22,0.0,0.0,72,0.00,CLR,,0.00,WeatherDisplay:10.37,2013-08-03 16:28:00,
2013-08-03 12:33:00,75.0,65.4,30.06,NNE,22,0.0,0.0,72,0.00,CLR,,0.00,WeatherDisplay:10.37,2013-08-03 16:33:00,
2013-08-03 12:38:00,75.2,65.1,30.07,NNE,22,0.0,0.0,71,0.00,CLR,,0.00,WeatherDisplay:10.37,2013-08-03 16:38:00,
2013-08-03 12:43:00,75.6,65.9,30.07,NNE,22,0.0,0.0,72,0.00,CLR,,0.00,WeatherDisplay:10.37,2013-08-03 16:43:00,
2013-08-03 12:48:00,75.9,65.0,30.07,NNE,22,0.0,0.0,69,0.00,CLR,,0.00,WeatherDisplay:10.37,2013-08-03 16:48:00,
2013-08-03 12:53:00,75.7,64.4,30.07,NNE,22,0.0,0.0,68,0.00,CLR,,0.00,WeatherDisplay:10.37,2013-08-03 16:53:00,
2013-08-03 12:58:00,75.4,64.1,30.07,NNE,22,0.0,0.0,68,0.00,CLR,,0.00,WeatherDisplay:10.37,2013-08-03 16:58:00,
2013-08-03 13:03:00,75.6,63.8,30.07,NNE,22,0.0,0.0,67,0.00,CLR,,0.00,WeatherDisplay:10.37,2013-08-03 17:03:00,
2013-08-03 13:08:00,75.9,63.3,30.07,NNE,22,0.0,0.0,65,0.00,CLR,,0.00,WeatherDisplay:10.37,2013-08-03 17:08:00,
2013-08-03 13:14:00,76.6,64.0,30.07,NNE,22,0.0,0.0,65,0.00,CLR,,0.00,WeatherDisplay:10.37,2013-08-03 17:14:00,
2013-08-03 13:19:00,77.0,63.4,30.06,NNE,22,0.0,0.0,63,0.00,CLR,,0.00,WeatherDisplay:10.37,2013-08-03 17:19:00,
2013-08-03 13:24:00,77.0,62.5,30.06,NNE,22,0.0,0.0,61,0.00,CLR,,0.00,WeatherDisplay:10.37,2013-08-03 17:24:00,
2013-08-03 13:29:00,77.2,62.7,30.06,NNE,22,0.0,0.0,61,0.00,CLR,,0.00,WeatherDisplay:10.37,2013-08-03 17:29:00,
2013-08-03 13:34:00,77.0,62.5,30.06,NNE,22,0.0,0.0,61,0.00,CLR,,0.00,WeatherDisplay:10.37,2013-08-03 17:34:00,
2013-08-03 13:39:00,77.5,62.1,30.06,NNE,22,0.0,0.0,59,0.00,CLR,,0.00,WeatherDisplay:10.37,2013-08-03 17:39:00,
2013-08-03 13:44:00,78.1,63.1,30.06,NNE,22,0.0,0.0,60,0.00,CLR,,0.00,WeatherDisplay:10.37,2013-08-03 17:44:00,
2013-08-03 13:49:00,78.6,63.1,30.06,NNE,22,0.0,0.0,59,0.00,CLR,,0.00,WeatherDisplay:10.37,2013-08-03 17:49:00,
2013-08-03 13:54:00,78.6,63.1,30.07,NNE,22,0.0,0.0,59,0.00,CLR,,0.00,WeatherDisplay:10.37,2013-08-03 17:54:00,
2013-08-03 13:59:00,79.0,63.9,30.06,NNE,22,0.0,0.0,60,0.00,CLR,,0.00,WeatherDisplay:10.37,2013-08-03 17:59:00,
2013-08-03 14:03:00,79.2,63.1,30.06,NNE,22,0.0,0.0,58,0.00,CLR,,0.00,WeatherDisplay:10.37,2013-08-03 18:03:00,
2013-08-03 14:08:00,79.0,62.9,30.06,NNE,22,0.0,0.0,58,0.00,CLR,,0.00,WeatherDisplay:10.37,2013-08-03 18:08:00,
2013-08-03 14:14:00,79.0,63.4,30.06,NNE,22,0.0,0.0,59,0.00,CLR,,0.00,WeatherDisplay:10.37,2013-08-03 18:14:00,
2013-08-03 14:19:00,79.3,63.3,30.06,NNE,22,0.0,0.0,58,0.00,CLR,,0.00,WeatherDisplay:10.37,2013-08-03 18:19:00,
2013-08-03 14:24:00,79.3,63.8,30.06,NNE,22,0.0,0.0,59,0.00,CLR,,0.00,WeatherDisplay:10.37,2013-08-03 18:24:00,
2013-08-03 14:29:00,79.0,63.9,30.06,NNE,22,0.0,0.0,60,0.00,CLR,,0.00,WeatherDisplay:10.37,2013-08-03 18:29:00,
2013-08-03 14:34:00,78.6,63.6,30.06,NNE,22,0.0,0.0,60,0.00,CLR,,0.00,WeatherDisplay:10.37,2013-08-03 18:34:00,
2013-08-03 14:38:00,77.9,62.9,30.05,NNE,22,0.0,0.0,60,0.00,CLR,,0.00,WeatherDisplay:10.37,2013-08-03 18:38:00,
2013-08-03 14:43:00,77.7,63.7,30.05,NNE,22,0.0,0.0,62,0.00,CLR,,0.00,WeatherDisplay:10.37,2013-08-03 18:43:00,
2013-08-03 14:49:00,77.7,63.7,30.06,NNE,22,0.0,0.0,62,0.00,CLR,,0.00,WeatherDisplay:10.37,2013-08-03 18:49:00,
2013-08-03 14:53:00,77.5,63.5,30.06,NNE,22,0.0,0.0,62,0.00,CLR,,0.00,WeatherDisplay:10.37,2013-08-03 18:53:00,
2013-08-03 14:59:00,76.8,62.3,30.06,NNE,22,0.0,0.0,61,0.00,CLR,,0.00,WeatherDisplay:10.37,2013-08-03 18:59:00,
2013-08-03 15:03:00,76.6,62.6,30.06,NNE,22,0.0,0.0,62,0.00,CLR,,0.00,WeatherDisplay:10.37,2013-08-03 19:03:00,
2013-08-03 15:09:00,76.5,62.9,30.06,NNE,22,0.0,0.0,63,0.00,CLR,,0.00,WeatherDisplay:10.37,2013-08-03 19:09:00,
2013-08-03 15:14:00,76.3,62.8,30.06,NNE,22,0.0,0.0,63,0.00,CLR,,0.00,WeatherDisplay:10.37,2013-08-03 19:14:00,
2013-08-03 15:19:00,76.3,62.8,30.06,NNE,22,0.0,0.0,63,0.00,CLR,,0.00,WeatherDisplay:10.37,2013-08-03 19:19:00,
2013-08-03 15:24:00,75.9,62.9,30.06,NNE,22,0.0,0.0,64,0.00,CLR,,0.00,WeatherDisplay:10.37,2013-08-03 19:24:00,
2013-08-03 15:29:00,75.7,62.7,30.06,NNE,22,0.0,0.0,64,0.00,CLR,,0.00,WeatherDisplay:10.37,2013-08-03 19:29:00,
2013-08-03 15:34:00,75.2,62.2,30.06,NNE,22,0.0,0.0,64,0.00,CLR,,0.00,WeatherDisplay:10.37,2013-08-03 19:34:00,
2013-08-03 15:39:00,74.8,62.7,30.06,NNE,22,0.0,0.0,66,0.00,CLR,,0.00,WeatherDisplay:10.37,2013-08-03 19:39:00,
2013-08-03 15:44:00,74.8,62.7,30.06,NNE,22,0.0,0.0,66,0.00,CLR,,0.00,WeatherDisplay:10.37,2013-08-03 19:44:00,
2013-08-03 15:49:00,74.1,62.5,30.06,NNE,22,0.0,0.0,67,0.00,CLR,,0.00,WeatherDisplay:10.37,2013-08-03 19:49:00,
2013-08-03 15:54:00,73.9,62.3,30.06,NNE,22,0.0,0.0,67,0.00,CLR,,0.00,WeatherDisplay:10.37,2013-08-03 19:54:00,
2013-08-03 15:59:00,73.8,62.5,30.06,NNE,22,0.0,0.0,68,0.00,CLR,,0.00,WeatherDisplay:10.37,2013-08-03 19:59:00,
2013-08-03 16:04:00,73.4,62.6,30.06,NNE,22,0.0,0.0,69,0.00,CLR,,0.00,WeatherDisplay:10.37,2013-08-03 20:04:00,
2013-08-03 16:09:00,73.2,62.4,30.06,NNE,22,0.0,0.0,69,0.00,CLR,,0.00,WeatherDisplay:10.37,2013-08-03 20:09:00,
2013-08-03 16:14:00,73.2,62.8,30.06,NNE,22,0.0,0.0,70,0.00,CLR,,0.00,WeatherDisplay:10.37,2013-08-03 20:14:00,
2013-08-03 16:19:00,73.4,63.0,30.06,NNE,22,0.0,0.0,70,0.00,CLR,,0.00,WeatherDisplay:10.37,2013-08-03 20:19:00,
2013-08-03 16:24:00,73.8,63.4,30.06,NNE,22,0.0,0.0,70,0.00,CLR,,0.00,WeatherDisplay:10.37,2013-08-03 20:24:00,
2013-08-03 16:29:00,73.9,63.5,30.06,NNE,22,0.0,0.0,70,0.00,CLR,,0.00,WeatherDisplay:10.37,2013-08-03 20:29:00,
2013-08-03 16:34:00,74.5,63.6,30.06,NNE,22,0.0,0.0,69,0.00,CLR,,0.00,WeatherDisplay:10.37,2013-08-03 20:34:00,
2013-08-03 16:39:00,75.2,64.3,30.05,NNE,22,0.0,0.0,69,0.00,CLR,,0.00,WeatherDisplay:10.37,2013-08-03 20:39:00,
2013-08-03 16:44:00,75.7,64.4,30.05,NNE,22,0.0,0.0,68,0.00,CLR,,0.00,WeatherDisplay:10.37,2013-08-03 20:44:00,
2013-08-03 16:49:00,76.1,64.8,30.05,NNE,22,0.0,0.0,68,0.00,CLR,,0.00,WeatherDisplay:10.37,2013-08-03 20:49:00,
2013-08-03 16:54:00,76.1,64.8,30.05,NNE,22,0.0,0.0,68,0.00,CLR,,0.00,WeatherDisplay:10.37,2013-08-03 20:54:00,
2013-08-03 16:59:00,77.2,65.4,30.04,NNE,22,0.0,0.0,67,0.00,CLR,,0.00,WeatherDisplay:10.37,2013-08-03 20:59:00,
2013-08-03 17:04:00,77.4,65.1,30.04,NNE,22,0.0,0.0,66,0.00,CLR,,0.00,WeatherDisplay:10.37,2013-08-03 21:04:00,
2013-08-03 17:09:00,77.2,64.5,30.04,NNE,22,0.0,0.0,65,0.00,CLR,,0.00,WeatherDisplay:10.37,2013-08-03 21:09:00,
2013-08-03 17:14:00,76.6,64.4,30.04,NNE,22,0.0,0.0,66,0.00,CLR,,0.00,WeatherDisplay:10.37,2013-08-03 21:14:00,
2013-08-03 17:19:00,75.9,64.2,30.05,NNE,22,0.0,0.0,67,0.00,CLR,,0.00,WeatherDisplay:10.37,2013-08-03 21:19:00,
2013-08-03 17:24:00,75.9,64.6,30.05,NNE,22,0.0,0.0,68,0.00,CLR,,0.00,WeatherDisplay:10.37,2013-08-03 21:24:00,
2013-08-03 17:29:00,75.7,64.4,30.05,NNE,22,0.0,0.0,68,0.00,CLR,,0.00,WeatherDisplay:10.37,2013-08-03 21:29:00,
2013-08-03 17:34:00,75.4,64.1,30.05,NNE,22,0.0,0.0,68,0.00,CLR,,0.00,WeatherDisplay:10.37,2013-08-03 21:34:00,
2013-08-03 17:39:00,75.4,64.5,30.05,NNE,22,0.0,0.0,69,0.00,CLR,,0.00,WeatherDisplay:10.37,2013-08-03 21:39:00,
2013-08-03 17:44:00,75.4,64.9,30.05,NNE,22,0.0,0.0,70,0.00,CLR,,0.00,WeatherDisplay:10.37,2013-08-03 21:44:00,
2013-08-03 17:49:00,75.9,65.0,30.05,NNE,22,0.0,0.0,69,0.00,CLR,,0.00,WeatherDisplay:10.37,2013-08-03 21:49:00,
2013-08-03 17:54:00,75.9,65.0,30.05,NNE,22,0.0,0.0,69,0.00,CLR,,0.00,WeatherDisplay:10.37,2013-08-03 21:54:00,
2013-08-03 17:59:00,76.1,65.2,30.04,NNE,22,0.0,0.0,69,0.00,CLR,,0.00,WeatherDisplay:10.37,2013-08-03 21:59:00,
2013-08-03 18:04:00,75.9,65.0,30.05,NNE,22,0.0,0.0,69,0.00,CLR,,0.00,WeatherDisplay:10.37,2013-08-03 22:04:00,
2013-08-03 18:09:00,75.7,64.8,30.04,NNE,22,0.0,0.0,69,0.00,CLR,,0.00,WeatherDisplay:10.37,2013-08-03 22:09:00,
2013-08-03 18:14:00,75.6,64.7,30.04,NNE,22,0.0,0.0,69,0.00,CLR,,0.00,WeatherDisplay:10.37,2013-08-03 22:14:00,
2013-08-03 18:19:00,75.4,64.5,30.04,NNE,22,0.0,0.0,69,0.00,CLR,,0.00,WeatherDisplay:10.37,2013-08-03 22:19:00,
2013-08-03 18:24:00,75.0,64.6,30.04,NNE,22,0.0,0.0,70,0.00,CLR,,0.00,WeatherDisplay:10.37,2013-08-03 22:24:00,
2013-08-03 18:29:00,75.0,64.6,30.03,NNE,22,0.0,0.0,70,0.00,CLR,,0.00,WeatherDisplay:10.37,2013-08-03 22:29:00,
2013-08-03 18:34:00,74.8,64.4,30.03,NNE,22,0.0,0.0,70,0.00,CLR,,0.00,WeatherDisplay:10.37,2013-08-03 22:34:00,
2013-08-03 18:39:00,74.8,64.8,30.03,NNE,22,0.0,0.0,71,0.00,CLR,,0.00,WeatherDisplay:10.37,2013-08-03 22:39:00,
2013-08-03 18:44:00,74.5,64.5,30.03,NNE,22,0.0,0.0,71,0.00,CLR,,0.00,WeatherDisplay:10.37,2013-08-03 22:44:00,
2013-08-03 18:49:00,74.5,64.5,30.04,NNE,22,0.0,0.0,71,0.00,CLR,,0.00,WeatherDisplay:10.37,2013-08-03 22:49:00,
2013-08-03 18:54:00,74.3,64.3,30.03,NNE,22,0.0,0.0,71,0.00,CLR,,0.00,WeatherDisplay:10.37,2013-08-03 22:54:00,
2013-08-03 18:59:00,74.1,64.1,30.03,NNE,22,0.0,0.0,71,0.00,CLR,,0.00,WeatherDisplay:10.37,2013-08-03 22:59:00,
2013-08-03 19:04:00,73.8,64.2,30.03,NNE,22,0.0,0.0,72,0.00,CLR,,0.00,WeatherDisplay:10.37,2013-08-03 23:04:00,
2013-08-03 19:09:00,73.6,64.0,30.03,NNE,22,0.0,0.0,72,0.00,CLR,,0.00,WeatherDisplay:10.37,2013-08-03 23:09:00,
2013-08-03 19:14:00,73.4,63.8,30.03,NNE,22,0.0,0.0,72,0.00,CLR,,0.00,WeatherDisplay:10.37,2013-08-03 23:14:00,
2013-08-03 19:19:00,73.2,63.6,30.03,NNE,22,0.0,0.0,72,0.00,CLR,,0.00,WeatherDisplay:10.37,2013-08-03 23:19:00,
2013-08-03 19:24:00,73.0,63.9,30.03,NNE,22,0.0,0.0,73,0.00,CLR,,0.00,WeatherDisplay:10.37,2013-08-03 23:24:00,
2013-08-03 19:29:00,73.0,63.9,30.03,NNE,22,0.0,0.0,73,0.00,CLR,,0.00,WeatherDisplay:10.37,2013-08-03 23:29:00,
2013-08-03 19:34:00,72.7,63.5,30.04,NNE,22,0.0,0.0,73,0.00,CLR,,0.00,WeatherDisplay:10.37,2013-08-03 23:34:00,
2013-08-03 19:39:00,72.5,63.7,30.04,NNE,22,0.0,0.0,74,0.00,CLR,,0.00,WeatherDisplay:10.37,2013-08-03 23:39:00,
2013-08-03 19:44:00,72.3,63.6,30.04,NNE,22,0.0,0.0,74,0.00,CLR,,0.00,WeatherDisplay:10.37,2013-08-03 23:44:00,
2013-08-03 19:49:00,72.1,63.8,30.05,NNE,22,0.0,0.0,75,0.00,CLR,,0.00,WeatherDisplay:10.37,2013-08-03 23:49:00,
2013-08-03 19:54:00,72.0,64.0,30.04,NNE,22,0.0,0.0,76,0.00,CLR,,0.00,WeatherDisplay:10.37,2013-08-03 23:54:00,
2013-08-03 19:59:00,71.4,63.8,30.04,NNE,22,0.0,0.0,77,0.00,CLR,,0.00,WeatherDisplay:10.37,2013-08-03 23:59:00,
2013-08-03 20:04:00,70.9,63.7,30.05,NNE,22,0.0,0.0,78,0.00,CLR,,0.00,WeatherDisplay:10.37,2013-08-04 00:04:00,
2013-08-03 20:09:00,70.5,63.3,30.05,NNE,22,0.0,0.0,78,0.00,CLR,,0.00,WeatherDisplay:10.37,2013-08-04 00:09:00,
2013-08-03 20:14:00,70.2,63.7,30.05,NNE,22,0.0,0.0,80,0.00,CLR,,0.00,WeatherDisplay:10.37,2013-08-04 00:14:00,
2013-08-03 20:19:00,69.6,63.5,30.05,NNE,22,0.0,0.0,81,0.00,CLR,,0.00,WeatherDisplay:10.37,2013-08-04 00:19:00,
2013-08-03 20:24:00,69.6,63.5,30.04,NNE,22,0.0,0.0,81,0.00,CLR,,0.00,WeatherDisplay:10.37,2013-08-04 00:24:00,
2013-08-03 20:29:00,69.4,63.7,30.04,NNE,22,0.0,0.0,82,0.00,CLR,,0.00,WeatherDisplay:10.37,2013-08-04 00:29:00,
2013-08-03 20:34:00,69.1,63.7,30.04,NNE,22,0.0,0.0,83,0.00,CLR,,0.00,WeatherDisplay:10.37,2013-08-04 00:34:00,
2013-08-03 20:39:00,68.7,63.3,30.04,NNE,22,0.0,0.0,83,0.00,CLR,,0.00,WeatherDisplay:10.37,2013-08-04 00:39:00,
2013-08-03 20:44:00,68.7,63.7,30.04,NNE,22,0.0,0.0,84,0.00,CLR,,0.00,WeatherDisplay:10.37,2013-08-04 00:44:00,
2013-08-03 20:49:00,68.7,63.7,30.04,NNE,22,0.0,0.0,84,0.00,CLR,,0.00,WeatherDisplay:10.37,2013-08-04 00:49:00,
2013-08-03 20:54:00,68.5,63.8,30.04,NNE,22,0.0,0.0,85,0.00,CLR,,0.00,WeatherDisplay:10.37,2013-08-04 00:54:00,
2013-08-03 20:59:00,68.5,63.8,30.05,NNE,22,0.0,0.0,85,0.00,CLR,,0.00,WeatherDisplay:10.37,2013-08-04 00:59:00,
2013-08-03 21:04:00,68.4,63.7,30.05,NNE,22,0.0,0.0,85,0.00,CLR,,0.00,WeatherDisplay:10.37,2013-08-04 01:04:00,
2013-08-03 21:09:00,68.2,63.5,30.05,NNE,22,0.0,0.0,85,0.00,CLR,,0.00,WeatherDisplay:10.37,2013-08-04 01:09:00,
2013-08-03 21:14:00,68.2,63.8,30.05,NNE,22,0.0,0.0,86,0.00,CLR,,0.00,WeatherDisplay:10.37,2013-08-04 01:14:00,
2013-08-03 21:19:00,68.2,63.8,30.05,NNE,22,0.0,0.0,86,0.00,CLR,,0.00,WeatherDisplay:10.37,2013-08-04 01:19:00,
2013-08-03 21:24:00,67.8,63.5,30.05,NNE,22,0.0,0.0,86,0.00,CLR,,0.00,WeatherDisplay:10.37,2013-08-04 01:24:00,
2013-08-03 21:29:00,67.8,63.5,30.06,NNE,22,0.0,0.0,86,0.00,CLR,,0.00,WeatherDisplay:10.37,2013-08-04 01:29:00,
2013-08-03 21:34:00,67.6,63.6,30.06,NNE,22,0.0,0.0,87,0.00,CLR,,0.00,WeatherDisplay:10.37,2013-08-04 01:34:00,
2013-08-03 21:39:00,67.5,63.5,30.06,NNE,22,0.0,0.0,87,0.00,CLR,,0.00,WeatherDisplay:10.37,2013-08-04 01:39:00,
2013-08-03 21:44:00,67.3,63.3,30.05,NNE,22,0.0,0.0,87,0.00,CLR,,0.00,WeatherDisplay:10.37,2013-08-04 01:44:00,
2013-08-03 21:49:00,67.3,63.3,30.06,NNE,22,0.0,0.0,87,0.00,CLR,,0.00,WeatherDisplay:10.37,2013-08-04 01:49:00,
2013-08-03 21:54:00,67.3,63.3,30.06,NNE,22,0.0,0.0,87,0.00,CLR,,0.00,WeatherDisplay:10.37,2013-08-04 01:54:00,
2013-08-03 21:59:00,67.3,63.3,30.06,NNE,22,0.0,0.0,87,0.00,CLR,,0.00,WeatherDisplay:10.37,2013-08-04 01:59:00,
2013-08-03 22:04:00,67.3,63.6,30.06,NNE,22,0.0,0.0,88,0.00,CLR,,0.00,WeatherDisplay:10.37,2013-08-04 02:04:00,
2013-08-03 22:09:00,67.5,63.8,30.06,NNE,22,0.0,0.0,88,0.00,CLR,,0.00,WeatherDisplay:10.37,2013-08-04 02:09:00,
2013-08-03 22:14:00,67.5,63.8,30.05,NNE,22,0.0,0.0,88,0.00,CLR,,0.00,WeatherDisplay:10.37,2013-08-04 02:14:00,
2013-08-03 22:19:00,67.5,63.8,30.06,NNE,22,0.0,0.0,88,0.00,CLR,,0.00,WeatherDisplay:10.37,2013-08-04 02:19:00,
2013-08-03 22:24:00,67.5,63.8,30.06,NNE,22,0.0,0.0,88,0.00,CLR,,0.00,WeatherDisplay:10.37,2013-08-04 02:24:00,
2013-08-03 22:29:00,67.3,63.6,30.06,NNE,22,0.0,0.0,88,0.00,CLR,,0.00,WeatherDisplay:10.37,2013-08-04 02:29:00,
2013-08-03 22:34:00,67.3,63.6,30.06,NNE,22,0.0,0.0,88,0.00,CLR,,0.00,WeatherDisplay:10.37,2013-08-04 02:34:00,
2013-08-03 22:39:00,67.3,63.6,30.05,NNE,22,0.0,0.0,88,0.00,CLR,,0.00,WeatherDisplay:10.37,2013-08-04 02:39:00,
2013-08-03 22:44:00,67.1,63.4,30.05,NNE,22,0.0,0.0,88,0.00,CLR,,0.00,WeatherDisplay:10.37,2013-08-04 02:44:00,
2013-08-03 22:49:00,67.1,63.4,30.05,NNE,22,0.0,0.0,88,0.00,CLR,,0.00,WeatherDisplay:10.37,2013-08-04 02:49:00,
2013-08-03 22:54:00,66.9,63.2,30.05,NNE,22,0.0,0.0,88,0.00,CLR,,0.00,WeatherDisplay:10.37,2013-08-04 02:54:00,
2013-08-03 22:59:00,67.1,63.4,30.06,NNE,22,0.0,0.0,88,0.00,CLR,,0.00,WeatherDisplay:10.37,2013-08-04 02:59:00,
2013-08-03 23:04:00,66.9,63.6,30.06,NNE,22,0.0,0.0,89,0.00,CLR,,0.00,WeatherDisplay:10.37,2013-08-04 03:04:00,
2013-08-03 23:09:00,66.9,63.6,30.06,NNE,22,0.0,0.0,89,0.00,CLR,,0.00,WeatherDisplay:10.37,2013-08-04 03:09:00,
2013-08-03 23:15:00,66.7,63.4,30.05,NNE,22,0.0,0.0,89,0.00,CLR,,0.00,WeatherDisplay:10.37,2013-08-04 03:15:00,
2013-08-03 23:20:00,66.7,63.4,30.06,NNE,22,0.0,0.0,89,0.00,CLR,,0.00,WeatherDisplay:10.37,2013-08-04 03:20:00,
2013-08-03 23:25:00,66.7,63.4,30.06,NNE,22,0.0,0.0,89,0.00,CLR,,0.00,WeatherDisplay:10.37,2013-08-04 03:25:00,
2013-08-03 23:30:00,66.6,63.2,30.06,NNE,22,0.0,0.0,89,0.00,CLR,,0.00,WeatherDisplay:10.37,2013-08-04 03:30:00,
2013-08-03 23:35:00,66.4,63.0,30.06,NNE,22,0.0,0.0,89,0.00,CLR,,0.00,WeatherDisplay:10.37,2013-08-04 03:35:00,
2013-08-03 23:39:00,66.4,63.0,30.06,NNE,22,0.0,0.0,89,0.00,CLR,,0.00,WeatherDisplay:10.37,2013-08-04 03:39:00,
2013-08-03 23:45:00,66.4,63.4,30.06,NNE,22,0.0,0.0,90,0.00,CLR,,0.00,WeatherDisplay:10.37,2013-08-04 03:45:00,
2013-08-03 23:50:00,66.4,63.4,30.06,NNE,22,0.0,0.0,90,0.00,CLR,,0.00,WeatherDisplay:10.37,2013-08-04 03:50:00,
2013-08-03 23:55:00,66.4,63.4,30.05,NNE,22,0.0,0.0,90,0.00,CLR,,0.00,WeatherDisplay:10.37,2013-08-04 03:55:00,